Terminal Aerodrome Forecast
Issued by NWS

Home | Current Version | Previous Version | Graphics & Text | Print | Product List | Glossary On
Versions: 1 2 3 4 5 6 7 8 9 10 11 12 13 14 15 16 17 18 19 20 21 22 23 24 25 26 27 28
000
FTUS43 KABR 010500
TAFMBG
TAF
KMBG 010524Z 0106/0206 24008KT P6SM BKN025
      TEMPO 0106/0108 SCT025
     FM010800 25010KT P6SM BKN150
     FM011500 30014G20KT P6SM OVC150
     FM020100 30006KT P6SM BKN150=

USA.gov is the U.S. government's official web portal to all federal, state and local government web resources and services.